createdAt,value
2023-05-15T00:00:21.417Z,3.40
2023-05-15T00:02:49.250Z,3.70
2023-05-15T00:05:17.037Z,4.28
2023-05-15T00:07:44.699Z,4.38
2023-05-15T00:10:12.849Z,4.25
2023-05-15T00:12:40.559Z,4.47
2023-05-15T00:15:08.843Z,4.55
2023-05-15T00:17:36.504Z,4.13
2023-05-15T00:20:05.421Z,3.78
2023-05-15T00:22:33.370Z,3.50
2023-05-15T00:25:00.985Z,3.97
2023-05-15T00:27:28.839Z,4.32
2023-05-15T00:29:56.516Z,4.40
2023-05-15T00:32:24.206Z,3.30
2023-05-15T00:34:52.730Z,4.30
2023-05-15T00:37:20.686Z,3.58
2023-05-15T00:39:48.556Z,3.28
2023-05-15T00:42:17.465Z,4.47
2023-05-15T00:44:45.866Z,3.55
2023-05-15T00:47:14.400Z,3.78
2023-05-15T00:49:42.939Z,4.22
2023-05-15T00:52:12.097Z,3.58
2023-05-15T00:54:39.780Z,3.95
2023-05-15T00:57:09.160Z,3.70
2023-05-15T00:59:40.847Z,3.60
2023-05-15T01:04:39.992Z,4.28
2023-05-15T01:07:08.866Z,4.32
2023-05-15T01:09:38.519Z,3.80
2023-05-15T01:12:09.457Z,4.75
2023-05-15T01:14:37.258Z,4.32
2023-05-15T01:17:05.009Z,4.00
2023-05-15T01:19:36.693Z,3.70
2023-05-15T01:22:38.997Z,4.18
2023-05-15T01:25:28.271Z,3.80
2023-05-15T01:28:00.070Z,3.72
2023-05-15T01:30:31.849Z,4.10
2023-05-15T01:33:08.470Z,4.47
2023-05-15T01:35:54.120Z,4.82
2023-05-15T01:38:54.040Z,4.25
2023-05-15T01:41:49.753Z,3.75
2023-05-15T01:44:22.507Z,3.72
2023-05-15T01:46:52.946Z,4.38
2023-05-15T01:49:26.390Z,3.95
2023-05-15T01:52:13.739Z,4.60
2023-05-15T01:54:43.330Z,4.22
2023-05-15T01:57:11.752Z,4.25
2023-05-15T01:59:40.860Z,4.60
2023-05-15T02:02:10.653Z,4.38
2023-05-15T02:04:40.540Z,4.70
2023-05-15T02:07:08.989Z,4.65
2023-05-15T02:09:37.028Z,4.68
2023-05-15T02:12:06.097Z,4.20
2023-05-15T02:14:35.094Z,3.97
2023-05-15T02:17:02.839Z,4.57
2023-05-15T02:19:30.478Z,3.75
2023-05-15T02:21:58.983Z,4.80
2023-05-15T02:24:26.643Z,4.60
2023-05-15T02:27:13.670Z,4.35
2023-05-15T02:30:06.627Z,11.77
2023-05-15T02:33:01.511Z,9.05
2023-05-15T02:35:49.537Z,6.82
2023-05-15T02:38:20.173Z,4.55
2023-05-15T02:40:49.004Z,5.65
2023-05-15T02:43:18.640Z,4.88
2023-05-15T02:45:47.824Z,3.63
2023-05-15T02:48:17.577Z,4.03
2023-05-15T02:50:46.658Z,3.53
2023-05-15T02:53:15.654Z,3.42
2023-05-15T02:55:43.340Z,3.33
2023-05-15T02:58:11.352Z,3.70
2023-05-15T03:00:38.981Z,3.92
2023-05-15T03:03:06.650Z,3.50
2023-05-15T03:05:34.518Z,3.92
2023-05-15T03:08:02.099Z,3.35
2023-05-15T03:10:29.751Z,3.80
2023-05-15T03:13:00.196Z,3.72
2023-05-15T03:15:28.108Z,4.18
2023-05-15T03:17:55.956Z,3.28
2023-05-15T03:20:23.692Z,3.67
2023-05-15T03:22:51.369Z,3.80
2023-05-15T03:25:19.058Z,4.18
2023-05-15T03:27:46.714Z,4.43
2023-05-15T03:30:14.958Z,4.40
2023-05-15T03:32:42.665Z,4.18
2023-05-15T03:35:10.661Z,4.72
2023-05-15T03:37:38.309Z,4.93
2023-05-15T03:40:07.525Z,5.18
2023-05-15T03:42:38.888Z,4.95
2023-05-15T03:45:07.348Z,4.68
2023-05-15T03:47:35.102Z,5.32
2023-05-15T03:50:02.898Z,4.78
2023-05-15T03:52:34.363Z,5.17
2023-05-15T03:55:02.184Z,4.38
2023-05-15T03:57:29.946Z,4.28
2023-05-15T03:59:57.637Z,4.10
2023-05-15T04:02:25.402Z,4.40
2023-05-15T04:04:53.480Z,4.32
2023-05-15T04:07:21.520Z,4.72
2023-05-15T04:09:49.201Z,5.75
2023-05-15T04:12:16.906Z,5.18
2023-05-15T04:14:44.421Z,6.35
2023-05-15T04:17:12.034Z,4.82
2023-05-15T04:19:41.141Z,5.35
2023-05-15T04:22:10.376Z,4.63
2023-05-15T04:24:37.962Z,5.35
2023-05-15T04:27:06.041Z,4.55
2023-05-15T04:29:33.796Z,4.90
2023-05-15T04:32:01.546Z,4.47
2023-05-15T04:34:29.563Z,5.50
2023-05-15T04:36:57.217Z,6.30
2023-05-15T04:39:24.837Z,6.20
2023-05-15T04:41:52.427Z,6.80
2023-05-15T04:44:20.314Z,6.03
2023-05-15T04:46:47.936Z,5.47
2023-05-15T04:49:15.628Z,5.15
2023-05-15T04:51:43.466Z,4.85
2023-05-15T04:54:11.278Z,5.47
2023-05-15T04:56:38.987Z,4.38
2023-05-15T04:59:06.608Z,4.65
2023-05-15T05:01:34.567Z,4.60
2023-05-15T05:04:02.390Z,4.82
2023-05-15T05:06:30.573Z,5.40
2023-05-15T05:08:58.641Z,4.65
2023-05-15T05:11:26.232Z,4.97
2023-05-15T05:13:54.137Z,4.68
2023-05-15T05:16:21.829Z,5.03
2023-05-15T05:18:49.464Z,4.90
2023-05-15T05:21:17.096Z,7.93
2023-05-15T05:23:44.847Z,5.45
2023-05-15T05:26:12.444Z,5.70
2023-05-15T05:28:40.120Z,6.25
2023-05-15T05:31:07.837Z,6.95
2023-05-15T05:33:35.519Z,5.78
2023-05-15T05:36:03.245Z,5.38
2023-05-15T05:38:30.887Z,5.82
2023-05-15T05:40:58.522Z,5.78
2023-05-15T05:43:26.493Z,6.95
2023-05-15T05:45:54.305Z,8.30
2023-05-15T05:48:21.963Z,6.60
2023-05-15T05:50:49.683Z,7.35
2023-05-15T05:53:17.422Z,5.75
2023-05-15T05:55:45.175Z,5.30
2023-05-15T05:58:24.050Z,5.15
2023-05-15T06:00:53.428Z,5.47
2023-05-15T06:03:21.599Z,4.80
2023-05-15T06:05:49.253Z,6.00
2023-05-15T06:08:17.234Z,5.10
2023-05-15T06:10:45.011Z,5.13
2023-05-15T06:13:14.914Z,4.65
2023-05-15T06:15:43.646Z,4.68
2023-05-15T06:18:11.436Z,5.40
2023-05-15T06:20:39.233Z,5.10
2023-05-15T06:23:06.795Z,5.57
2023-05-15T06:25:34.682Z,3.75
2023-05-15T06:28:02.299Z,4.20
2023-05-15T06:30:29.898Z,4.45
2023-05-15T06:32:57.661Z,3.88
2023-05-15T06:35:25.597Z,4.45
2023-05-15T06:37:53.538Z,4.35
2023-05-15T06:40:21.497Z,4.63
2023-05-15T06:42:49.219Z,4.00
2023-05-15T06:45:16.930Z,3.78
2023-05-15T06:47:44.520Z,4.10
2023-05-15T06:50:12.210Z,3.03
2023-05-15T06:52:39.805Z,3.40
2023-05-15T06:55:08.080Z,3.92
2023-05-15T06:57:35.802Z,4.18
2023-05-15T07:00:04.898Z,4.00
2023-05-15T07:02:32.744Z,3.63
2023-05-15T07:05:00.484Z,3.47
2023-05-15T07:07:28.260Z,4.05
2023-05-15T07:09:55.916Z,3.83
2023-05-15T07:12:23.658Z,3.60
2023-05-15T07:14:51.307Z,4.45
2023-05-15T07:17:19.425Z,3.70
2023-05-15T07:19:47.134Z,4.15
2023-05-15T07:22:14.758Z,3.53
2023-05-15T07:24:42.391Z,4.28
2023-05-15T07:27:10.000Z,3.88
2023-05-15T07:29:37.644Z,4.45
2023-05-15T07:32:05.891Z,4.00
2023-05-15T07:34:33.509Z,4.07
2023-05-15T07:37:01.206Z,3.40
2023-05-15T07:39:28.859Z,4.07
2023-05-15T07:41:56.608Z,3.22
2023-05-15T07:44:24.230Z,3.95
2023-05-15T07:46:52.015Z,4.07
2023-05-15T07:49:19.695Z,3.65
2023-05-15T07:51:47.282Z,3.38
2023-05-15T07:54:15.047Z,3.40
2023-05-15T07:56:42.729Z,4.18
2023-05-15T07:59:10.354Z,3.75
2023-05-15T08:01:38.101Z,4.72
2023-05-15T08:04:08.304Z,3.90
2023-05-15T08:06:38.374Z,3.45
2023-05-15T08:09:06.396Z,3.63
2023-05-15T08:11:34.111Z,2.90
2023-05-15T08:14:01.750Z,3.55
2023-05-15T08:16:29.854Z,3.03
2023-05-15T08:19:01.716Z,3.53
2023-05-15T08:21:29.807Z,3.55
2023-05-15T08:24:00.406Z,3.42
2023-05-15T08:26:28.036Z,3.95
2023-05-15T08:28:55.676Z,3.70
2023-05-15T08:31:23.275Z,3.63
2023-05-15T08:33:50.930Z,3.90
2023-05-15T08:36:19.910Z,4.13
2023-05-15T08:38:47.751Z,3.55
2023-05-15T08:41:40.154Z,3.60
2023-05-15T08:44:11.177Z,3.03
2023-05-15T08:46:39.778Z,3.15
2023-05-15T08:49:36.157Z,4.20
2023-05-15T08:52:05.223Z,4.88
2023-05-15T08:54:33.332Z,3.80
2023-05-15T08:57:02.419Z,3.63
2023-05-15T08:59:30.720Z,2.92
2023-05-15T09:01:58.476Z,3.17
2023-05-15T09:04:26.143Z,3.20
2023-05-15T09:06:54.686Z,2.90
2023-05-15T09:09:24.042Z,3.03
2023-05-15T09:11:52.175Z,3.35
2023-05-15T09:14:20.044Z,2.60
2023-05-15T09:16:51.113Z,3.45
2023-05-15T09:19:21.027Z,3.30
2023-05-15T09:21:49.442Z,3.15
2023-05-15T09:24:25.399Z,2.90
2023-05-15T09:27:07.352Z,3.13
2023-05-15T09:29:37.143Z,3.08
2023-05-15T09:32:06.293Z,2.83
2023-05-15T09:34:38.598Z,3.60
2023-05-15T09:39:42.907Z,4.43
2023-05-15T09:42:14.098Z,2.80
2023-05-15T09:44:45.770Z,2.92
2023-05-15T09:47:14.827Z,3.00
2023-05-15T09:49:47.058Z,3.30
2023-05-15T09:54:48.737Z,3.58
2023-05-15T09:57:22.450Z,3.03
2023-05-15T10:02:32.321Z,2.47
2023-05-15T10:07:29.999Z,3.15
2023-05-15T10:09:58.509Z,2.45
2023-05-15T10:12:26.936Z,2.95
2023-05-15T10:14:57.606Z,4.20
2023-05-15T10:17:27.895Z,3.35
2023-05-15T10:19:59.592Z,2.50
2023-05-15T10:22:31.080Z,2.53
2023-05-15T10:25:15.997Z,2.47
2023-05-15T10:27:43.778Z,3.30
2023-05-15T10:30:12.562Z,2.38
2023-05-15T10:32:42.144Z,1.90
2023-05-15T10:35:12.023Z,1.40
2023-05-15T10:37:40.991Z,1.80
2023-05-15T10:40:13.296Z,1.42
2023-05-15T10:45:10.757Z,2.17
2023-05-15T10:47:40.153Z,1.58
2023-05-15T10:50:08.693Z,1.42
2023-05-15T10:52:38.845Z,1.55
2023-05-15T10:55:08.204Z,1.08
2023-05-15T10:57:37.010Z,1.42
2023-05-15T11:00:29.343Z,1.60
2023-05-15T11:05:27.037Z,1.25
2023-05-15T11:08:13.631Z,1.20
2023-05-15T11:10:41.574Z,1.27
2023-05-15T11:13:09.249Z,1.05
2023-05-15T11:15:47.756Z,1.15
2023-05-15T11:18:16.050Z,1.15
2023-05-15T11:20:43.690Z,1.40
2023-05-15T11:23:11.438Z,7.05
2023-05-15T11:25:39.534Z,7.28
2023-05-15T11:28:20.762Z,4.50
2023-05-15T11:30:52.236Z,2.90
2023-05-15T11:33:21.234Z,1.63
2023-05-15T11:35:49.046Z,2.95
2023-05-15T11:38:26.825Z,2.60
2023-05-15T11:41:04.157Z,1.17
2023-05-15T11:43:33.360Z,0.82
2023-05-15T11:46:08.585Z,1.92
2023-05-15T11:48:40.520Z,2.40
2023-05-15T11:51:21.981Z,1.20
2023-05-15T11:53:51.456Z,2.42
2023-05-15T11:56:30.492Z,2.97
2023-05-15T11:59:00.488Z,2.30
2023-05-15T12:01:38.607Z,2.67
2023-05-15T12:04:16.395Z,1.25
2023-05-15T12:06:45.032Z,0.93
2023-05-15T12:09:19.625Z,0.80
2023-05-15T12:11:54.769Z,0.98
2023-05-15T12:14:29.604Z,0.80
2023-05-15T12:17:04.529Z,1.17
2023-05-15T12:19:35.292Z,0.90
2023-05-15T12:22:05.541Z,0.75
2023-05-15T12:24:33.241Z,0.80
2023-05-15T12:27:01.016Z,5.00
2023-05-15T12:29:29.302Z,1.00
2023-05-15T12:31:57.169Z,1.23
2023-05-15T12:34:25.049Z,2.20
2023-05-15T12:36:52.761Z,0.80
2023-05-15T12:39:20.572Z,0.93
2023-05-15T12:41:50.074Z,1.65
2023-05-15T12:44:18.355Z,1.42
2023-05-15T12:46:46.712Z,1.83
2023-05-15T12:49:21.063Z,1.17
2023-05-15T12:51:49.289Z,1.05
2023-05-15T12:54:18.389Z,1.48
2023-05-15T12:56:47.456Z,1.65
2023-05-15T12:59:15.162Z,1.45
2023-05-15T13:01:42.836Z,1.75
2023-05-15T13:04:11.138Z,1.50
2023-05-15T13:09:12.739Z,1.50
2023-05-15T13:11:45.152Z,0.65
2023-05-15T13:14:17.636Z,0.70
2023-05-15T13:16:47.106Z,0.52
2023-05-15T13:19:15.881Z,2.00
2023-05-15T13:21:45.051Z,1.52
2023-05-15T13:24:12.888Z,0.77
2023-05-15T13:26:40.899Z,0.60
2023-05-15T13:29:08.548Z,0.57
2023-05-15T13:31:36.219Z,0.93
2023-05-15T13:34:04.191Z,0.60
2023-05-15T13:36:32.166Z,1.38
2023-05-15T13:38:59.788Z,0.90
2023-05-15T13:41:27.496Z,0.80
2023-05-15T13:43:55.087Z,0.95
2023-05-15T13:46:22.694Z,0.40
2023-05-15T13:48:50.782Z,0.90
2023-05-15T13:51:18.446Z,1.38
2023-05-15T13:53:46.341Z,3.13
2023-05-15T13:56:14.195Z,2.20
2023-05-15T13:58:42.576Z,2.63
2023-05-15T14:01:10.197Z,1.20
2023-05-15T14:03:38.184Z,0.95
2023-05-15T14:06:06.185Z,1.10
2023-05-15T14:08:34.055Z,1.23
2023-05-15T14:11:02.119Z,0.68
2023-05-15T14:13:31.845Z,0.65
2023-05-15T14:15:59.481Z,0.90
2023-05-15T14:18:27.160Z,0.57
2023-05-15T14:20:54.762Z,0.40
2023-05-15T14:23:22.452Z,0.80
2023-05-15T14:25:50.132Z,0.90
2023-05-15T14:28:18.036Z,0.60
2023-05-15T14:30:45.766Z,0.77
2023-05-15T14:33:14.092Z,0.80
2023-05-15T14:35:41.798Z,0.65
2023-05-15T14:38:09.459Z,0.70
2023-05-15T14:40:37.014Z,0.80
2023-05-15T14:43:04.630Z,0.60
2023-05-15T14:45:33.269Z,0.95
2023-05-15T14:48:01.046Z,1.08
2023-05-15T14:50:28.799Z,0.77
2023-05-15T14:52:56.623Z,1.48
2023-05-15T14:55:24.297Z,0.90
2023-05-15T14:57:52.084Z,0.77
2023-05-15T15:00:20.217Z,0.63
2023-05-15T15:02:47.976Z,1.50
2023-05-15T15:05:15.901Z,12.82
2023-05-15T15:08:02.652Z,2.60
2023-05-15T15:10:31.459Z,2.10
2023-05-15T15:12:59.844Z,1.27
2023-05-15T15:15:27.889Z,1.13
2023-05-15T15:17:57.571Z,2.60
2023-05-15T15:20:26.811Z,0.65
2023-05-15T15:22:55.367Z,0.63
2023-05-15T15:25:23.939Z,0.82
2023-05-15T15:27:52.063Z,2.40
2023-05-15T15:30:19.869Z,1.98
2023-05-15T15:32:47.610Z,2.08
2023-05-15T15:35:15.493Z,1.48
2023-05-15T15:37:43.861Z,1.67
2023-05-15T15:40:12.202Z,3.40
2023-05-15T15:42:39.860Z,3.35
2023-05-15T15:45:07.976Z,2.70
2023-05-15T15:47:35.794Z,1.23
2023-05-15T15:50:04.087Z,1.52
2023-05-15T15:52:31.757Z,0.85
2023-05-15T15:54:59.482Z,1.75
2023-05-15T15:57:29.604Z,1.80
2023-05-15T15:59:57.311Z,1.30
2023-05-15T16:02:24.975Z,2.42
2023-05-15T16:04:52.658Z,1.08
2023-05-15T16:07:20.876Z,1.40
2023-05-15T16:09:56.871Z,1.60
2023-05-15T16:12:36.266Z,1.73
2023-05-15T16:15:17.511Z,1.00
2023-05-15T16:17:52.721Z,0.73
2023-05-15T16:20:20.881Z,0.43
2023-05-15T16:22:48.519Z,0.50
2023-05-15T16:25:16.177Z,0.47
2023-05-15T16:27:43.898Z,0.75
2023-05-15T16:30:12.274Z,0.80
2023-05-15T16:32:40.383Z,1.73
2023-05-15T16:35:08.513Z,1.13
2023-05-15T16:37:36.323Z,2.47
2023-05-15T16:40:04.467Z,1.35
2023-05-15T16:42:38.063Z,1.02
2023-05-15T16:45:06.749Z,0.98
2023-05-15T16:47:35.215Z,1.08
2023-05-15T16:50:03.651Z,1.40
2023-05-15T16:52:31.329Z,1.60
2023-05-15T16:54:58.912Z,2.17
2023-05-15T16:57:27.077Z,1.60
2023-05-15T16:59:55.044Z,1.10
2023-05-15T17:02:22.782Z,1.17
2023-05-15T17:04:50.892Z,0.70
2023-05-15T17:07:18.602Z,0.68
2023-05-15T17:09:46.655Z,0.50
2023-05-15T17:12:14.624Z,0.80
2023-05-15T17:14:42.296Z,1.50
2023-05-15T17:17:09.895Z,2.63
2023-05-15T17:19:37.979Z,2.88
2023-05-15T17:22:05.889Z,1.67
2023-05-15T17:24:49.315Z,2.10
2023-05-15T17:27:19.623Z,1.42
2023-05-15T17:29:47.769Z,2.20
2023-05-15T17:32:17.361Z,2.20
2023-05-15T17:34:45.695Z,3.20
2023-05-15T17:37:13.899Z,4.35
2023-05-15T17:39:41.872Z,7.85
2023-05-15T17:42:09.729Z,4.63
2023-05-15T17:44:37.424Z,7.40
2023-05-15T17:47:05.328Z,4.07
2023-05-15T17:49:34.311Z,1.70
2023-05-15T17:52:02.419Z,2.05
2023-05-15T17:54:30.096Z,6.38
2023-05-15T17:56:57.807Z,9.90
2023-05-15T17:59:25.578Z,11.98
2023-05-15T18:01:53.360Z,22.70
2023-05-15T18:04:21.264Z,11.20
2023-05-15T18:06:49.168Z,5.63
2023-05-15T18:09:16.831Z,4.25
2023-05-15T18:11:44.733Z,1.50
2023-05-15T18:14:12.436Z,2.78
2023-05-15T18:16:40.550Z,1.50
2023-05-15T18:19:08.373Z,0.90
2023-05-15T18:21:37.806Z,0.90
2023-05-15T18:24:06.507Z,0.70
2023-05-15T18:26:34.156Z,1.15
2023-05-15T18:29:02.245Z,0.63
2023-05-15T18:31:30.128Z,0.93
2023-05-15T18:34:02.873Z,2.05
2023-05-15T18:36:30.933Z,1.88
2023-05-15T18:38:58.682Z,0.80
2023-05-15T18:41:27.204Z,0.70
2023-05-15T18:43:55.183Z,0.95
2023-05-15T18:46:23.422Z,1.38
2023-05-15T18:48:51.532Z,1.50
2023-05-15T18:51:23.897Z,1.52
2023-05-15T18:56:19.456Z,0.80
2023-05-15T18:58:47.541Z,0.50
2023-05-15T19:01:15.182Z,0.80
2023-05-15T19:03:43.206Z,0.95
2023-05-15T19:06:11.672Z,1.10
2023-05-15T19:08:39.384Z,1.17
2023-05-15T19:11:08.991Z,0.80
2023-05-15T19:13:36.758Z,1.10
2023-05-15T19:16:06.165Z,1.10
2023-05-15T19:18:34.107Z,1.23
2023-05-15T19:21:02.373Z,1.27
2023-05-15T19:23:30.102Z,2.03
2023-05-15T19:25:58.130Z,2.25
2023-05-15T19:28:26.240Z,2.25
2023-05-15T19:30:54.340Z,1.85
2023-05-15T19:33:22.113Z,1.33
2023-05-15T19:35:50.052Z,0.93
2023-05-15T19:38:17.926Z,1.20
2023-05-15T19:40:45.917Z,1.45
2023-05-15T19:43:15.316Z,5.00
2023-05-15T19:45:44.278Z,4.88
2023-05-15T19:48:12.763Z,3.30
2023-05-15T19:50:40.821Z,1.30
2023-05-15T19:53:08.785Z,1.65
2023-05-15T19:55:36.534Z,2.45
2023-05-15T19:58:04.425Z,1.10
2023-05-15T20:00:32.546Z,1.90
2023-05-15T20:03:01.056Z,2.35
2023-05-15T20:05:29.120Z,3.30
2023-05-15T20:07:56.987Z,3.13
2023-05-15T20:10:24.900Z,3.20
2023-05-15T20:12:52.836Z,3.92
2023-05-15T20:15:20.511Z,3.60
2023-05-15T20:17:48.192Z,3.08
2023-05-15T20:20:16.700Z,4.38
2023-05-15T20:22:45.114Z,5.30
2023-05-15T20:25:12.750Z,8.75
2023-05-15T20:27:40.368Z,8.05
2023-05-15T20:30:08.579Z,8.32
2023-05-15T20:32:36.488Z,7.05
2023-05-15T20:35:04.557Z,8.23
2023-05-15T20:37:33.399Z,10.50
2023-05-15T20:40:01.015Z,13.57
2023-05-15T20:42:29.573Z,14.63
2023-05-15T20:44:57.320Z,15.93
2023-05-15T20:47:24.999Z,12.82
2023-05-15T20:49:52.683Z,11.07
2023-05-15T20:52:20.939Z,11.10
2023-05-15T20:54:48.935Z,9.45
2023-05-15T20:57:16.756Z,9.48
2023-05-15T20:59:44.592Z,7.15
2023-05-15T21:02:12.336Z,8.25
2023-05-15T21:04:40.075Z,4.45
2023-05-15T21:07:08.313Z,3.17
2023-05-15T21:09:36.225Z,3.53
2023-05-15T21:12:04.439Z,3.22
2023-05-15T21:14:32.044Z,2.47
2023-05-15T21:16:59.817Z,2.60
2023-05-15T21:19:27.550Z,1.60
2023-05-15T21:21:55.212Z,0.65
2023-05-15T21:24:22.856Z,0.98
2023-05-15T21:26:50.669Z,1.10
2023-05-15T21:29:18.536Z,1.10
2023-05-15T21:31:46.359Z,1.08
2023-05-15T21:34:14.115Z,1.00
2023-05-15T21:36:41.808Z,0.80
2023-05-15T21:39:09.648Z,1.33
2023-05-15T21:41:37.758Z,1.20
2023-05-15T21:44:05.614Z,1.10
2023-05-15T21:46:33.360Z,0.70
2023-05-15T21:49:01.465Z,0.77
2023-05-15T21:51:29.448Z,0.90
2023-05-15T21:53:58.166Z,0.50
2023-05-15T21:56:26.339Z,0.70
2023-05-15T21:58:54.160Z,1.00
2023-05-15T22:01:21.955Z,0.70
2023-05-15T22:03:50.806Z,0.70
2023-05-15T22:06:18.513Z,0.80
2023-05-15T22:08:46.302Z,1.15
2023-05-15T22:11:14.020Z,0.98
2023-05-15T22:13:41.671Z,1.23
2023-05-15T22:16:09.705Z,0.88
2023-05-15T22:18:37.876Z,0.80
2023-05-15T22:21:06.550Z,0.80
2023-05-15T22:23:34.317Z,0.63
2023-05-15T22:26:02.319Z,0.73
2023-05-15T22:28:29.976Z,2.67
2023-05-15T22:30:58.750Z,6.90
2023-05-15T22:33:27.231Z,7.10
2023-05-15T22:35:55.043Z,3.38
2023-05-15T22:38:22.721Z,2.00
2023-05-15T22:40:54.015Z,1.50
2023-05-15T22:43:22.571Z,1.70
2023-05-15T22:45:50.434Z,2.50
2023-05-15T22:48:18.297Z,1.48
2023-05-15T22:50:45.965Z,1.95
2023-05-15T22:53:13.704Z,1.67
2023-05-15T22:55:41.866Z,1.88
2023-05-15T22:58:09.627Z,1.20
2023-05-15T23:00:37.566Z,0.60
2023-05-15T23:03:05.687Z,0.60
2023-05-15T23:05:33.441Z,0.47
2023-05-15T23:08:02.150Z,0.50
2023-05-15T23:10:29.950Z,0.60
2023-05-15T23:12:57.713Z,0.32
2023-05-15T23:15:25.804Z,0.55
2023-05-15T23:17:53.599Z,0.40
2023-05-15T23:20:21.611Z,0.60
2023-05-15T23:22:49.298Z,0.77
2023-05-15T23:25:16.947Z,0.40
2023-05-15T23:27:44.663Z,0.73
2023-05-15T23:30:12.755Z,0.40
2023-05-15T23:32:40.540Z,0.50
2023-05-15T23:35:09.002Z,0.47
2023-05-15T23:37:37.219Z,0.63
2023-05-15T23:40:06.101Z,0.50
2023-05-15T23:42:34.078Z,0.52
2023-05-15T23:45:01.763Z,0.40
2023-05-15T23:47:29.950Z,0.38
2023-05-15T23:49:57.821Z,0.55
2023-05-15T23:52:25.786Z,0.30
2023-05-15T23:54:53.383Z,0.30
2023-05-15T23:57:21.211Z,0.20
2023-05-15T23:59:48.801Z,0.40
